sensor_id;sensor_type;location;lat;lon;timestamp;P1;durP1;ratioP1;P2;durP2;ratioP2
962;SDS011;469;48.770;9.176;2023-03-04T00:01:50;52.80;;;19.25;;
962;SDS011;469;48.770;9.176;2023-03-04T00:07:30;50.03;;;19.55;;
962;SDS011;469;48.770;9.176;2023-03-04T00:10:13;55.22;;;20.90;;
962;SDS011;469;48.770;9.176;2023-03-04T00:12:58;57.28;;;20.80;;
962;SDS011;469;48.770;9.176;2023-03-04T00:15:57;60.85;;;20.17;;
962;SDS011;469;48.770;9.176;2023-03-04T00:18:29;52.30;;;19.60;;
962;SDS011;469;48.770;9.176;2023-03-04T00:21:07;52.92;;;19.73;;
962;SDS011;469;48.770;9.176;2023-03-04T00:26:40;50.50;;;18.40;;
962;SDS011;469;48.770;9.176;2023-03-04T00:29:34;51.40;;;19.45;;
962;SDS011;469;48.770;9.176;2023-03-04T00:32:26;54.70;;;18.90;;
962;SDS011;469;48.770;9.176;2023-03-04T00:35:00;53.05;;;19.30;;
962;SDS011;469;48.770;9.176;2023-03-04T00:38:07;46.25;;;18.77;;
962;SDS011;469;48.770;9.176;2023-03-04T00:41:25;51.30;;;19.73;;
962;SDS011;469;48.770;9.176;2023-03-04T00:43:55;52.03;;;20.50;;
962;SDS011;469;48.770;9.176;2023-03-04T00:46:50;61.90;;;20.10;;
962;SDS011;469;48.770;9.176;2023-03-04T00:49:24;59.00;;;20.15;;
962;SDS011;469;48.770;9.176;2023-03-04T00:52:36;58.90;;;20.45;;
962;SDS011;469;48.770;9.176;2023-03-04T00:58:18;54.03;;;20.55;;
962;SDS011;469;48.770;9.176;2023-03-04T01:01:19;55.08;;;20.75;;
962;SDS011;469;48.770;9.176;2023-03-04T01:04:08;52.28;;;19.83;;
962;SDS011;469;48.770;9.176;2023-03-04T01:07:30;49.40;;;19.55;;
962;SDS011;469;48.770;9.176;2023-03-04T01:09:49;61.22;;;19.42;;
962;SDS011;469;48.770;9.176;2023-03-04T01:12:39;47.35;;;17.85;;
962;SDS011;469;48.770;9.176;2023-03-04T01:15:23;54.40;;;20.08;;
962;SDS011;469;48.770;9.176;2023-03-04T01:18:03;53.00;;;19.63;;
962;SDS011;469;48.770;9.176;2023-03-04T01:20:54;56.10;;;20.15;;
962;SDS011;469;48.770;9.176;2023-03-04T01:23:40;54.72;;;19.95;;
962;SDS011;469;48.770;9.176;2023-03-04T01:29:16;51.05;;;19.42;;
962;SDS011;469;48.770;9.176;2023-03-04T01:31:58;56.30;;;18.77;;
962;SDS011;469;48.770;9.176;2023-03-04T01:34:41;48.50;;;19.65;;
962;SDS011;469;48.770;9.176;2023-03-04T01:52:49;52.97;;;18.98;;
962;SDS011;469;48.770;9.176;2023-03-04T01:55:27;54.25;;;18.60;;
962;SDS011;469;48.770;9.176;2023-03-04T01:58:04;44.22;;;18.15;;
962;SDS011;469;48.770;9.176;2023-03-04T02:01:00;48.47;;;17.23;;
962;SDS011;469;48.770;9.176;2023-03-04T02:03:39;54.22;;;19.05;;
962;SDS011;469;48.770;9.176;2023-03-04T02:06:28;56.38;;;19.35;;
962;SDS011;469;48.770;9.176;2023-03-04T02:15:27;46.35;;;18.10;;
962;SDS011;469;48.770;9.176;2023-03-04T02:18:14;46.75;;;18.13;;
962;SDS011;469;48.770;9.176;2023-03-04T02:21:07;53.95;;;17.52;;
962;SDS011;469;48.770;9.176;2023-03-04T02:24:12;48.08;;;18.38;;
962;SDS011;469;48.770;9.176;2023-03-04T02:51:48;46.70;;;17.23;;
962;SDS011;469;48.770;9.176;2023-03-04T02:54:36;45.08;;;17.42;;
962;SDS011;469;48.770;9.176;2023-03-04T02:57:17;46.80;;;18.00;;
962;SDS011;469;48.770;9.176;2023-03-04T03:02:54;46.50;;;18.05;;
962;SDS011;469;48.770;9.176;2023-03-04T03:05:47;45.90;;;18.10;;
962;SDS011;469;48.770;9.176;2023-03-04T03:11:34;48.83;;;18.20;;
962;SDS011;469;48.770;9.176;2023-03-04T03:14:19;49.65;;;17.30;;
962;SDS011;469;48.770;9.176;2023-03-04T03:17:11;51.55;;;19.15;;
962;SDS011;469;48.770;9.176;2023-03-04T03:19:42;53.78;;;17.42;;
962;SDS011;469;48.770;9.176;2023-03-04T03:22:20;52.17;;;19.50;;
962;SDS011;469;48.770;9.176;2023-03-04T03:25:12;49.75;;;18.15;;
962;SDS011;469;48.770;9.176;2023-03-04T03:28:23;47.13;;;17.75;;
962;SDS011;469;48.770;9.176;2023-03-04T03:31:11;45.53;;;17.63;;
962;SDS011;469;48.770;9.176;2023-03-04T03:33:54;48.05;;;18.75;;
962;SDS011;469;48.770;9.176;2023-03-04T03:36:45;47.50;;;16.60;;
962;SDS011;469;48.770;9.176;2023-03-04T03:39:50;52.15;;;18.38;;
962;SDS011;469;48.770;9.176;2023-03-04T03:42:37;46.30;;;16.45;;
962;SDS011;469;48.770;9.176;2023-03-04T03:45:31;43.88;;;17.10;;
962;SDS011;469;48.770;9.176;2023-03-04T03:48:33;51.60;;;19.00;;
962;SDS011;469;48.770;9.176;2023-03-04T03:51:18;39.17;;;16.55;;
962;SDS011;469;48.770;9.176;2023-03-04T03:53:59;42.33;;;16.95;;
962;SDS011;469;48.770;9.176;2023-03-04T03:56:32;48.83;;;18.42;;
962;SDS011;469;48.770;9.176;2023-03-04T03:59:21;49.75;;;17.35;;
962;SDS011;469;48.770;9.176;2023-03-04T04:02:20;41.65;;;16.75;;
962;SDS011;469;48.770;9.176;2023-03-04T04:08:09;37.67;;;15.75;;
962;SDS011;469;48.770;9.176;2023-03-04T04:11:04;41.47;;;16.17;;
962;SDS011;469;48.770;9.176;2023-03-04T04:13:53;46.47;;;17.20;;
962;SDS011;469;48.770;9.176;2023-03-04T04:35:19;41.83;;;16.23;;
962;SDS011;469;48.770;9.176;2023-03-04T04:38:30;41.97;;;15.52;;
962;SDS011;469;48.770;9.176;2023-03-04T04:41:18;40.28;;;15.35;;
962;SDS011;469;48.770;9.176;2023-03-04T04:43:55;42.70;;;16.25;;
962;SDS011;469;48.770;9.176;2023-03-04T04:46:57;45.80;;;15.30;;
962;SDS011;469;48.770;9.176;2023-03-04T04:49:47;39.90;;;15.57;;
962;SDS011;469;48.770;9.176;2023-03-04T05:01:18;43.50;;;15.27;;
962;SDS011;469;48.770;9.176;2023-03-04T05:04:03;46.80;;;16.85;;
962;SDS011;469;48.770;9.176;2023-03-04T05:06:46;47.42;;;17.10;;
962;SDS011;469;48.770;9.176;2023-03-04T05:09:30;57.63;;;17.92;;
962;SDS011;469;48.770;9.176;2023-03-04T05:12:10;49.00;;;17.98;;
962;SDS011;469;48.770;9.176;2023-03-04T05:23:59;41.60;;;15.48;;
962;SDS011;469;48.770;9.176;2023-03-04T05:26:48;40.15;;;16.00;;
962;SDS011;469;48.770;9.176;2023-03-04T05:29:38;46.28;;;16.45;;
962;SDS011;469;48.770;9.176;2023-03-04T05:32:20;48.95;;;16.65;;
962;SDS011;469;48.770;9.176;2023-03-04T05:34:53;41.33;;;16.38;;
962;SDS011;469;48.770;9.176;2023-03-04T05:37:38;44.03;;;16.45;;
962;SDS011;469;48.770;9.176;2023-03-04T05:52:06;39.70;;;15.80;;
962;SDS011;469;48.770;9.176;2023-03-04T05:54:48;44.28;;;16.52;;
962;SDS011;469;48.770;9.176;2023-03-04T06:00:27;42.67;;;16.48;;
962;SDS011;469;48.770;9.176;2023-03-04T06:03:34;43.67;;;15.02;;
962;SDS011;469;48.770;9.176;2023-03-04T06:06:17;42.42;;;15.40;;
962;SDS011;469;48.770;9.176;2023-03-04T06:52:49;47.67;;;17.00;;
962;SDS011;469;48.770;9.176;2023-03-04T07:01:07;42.90;;;15.65;;
962;SDS011;469;48.770;9.176;2023-03-04T07:07:00;47.42;;;16.08;;
962;SDS011;469;48.770;9.176;2023-03-04T07:12:56;41.80;;;15.65;;
962;SDS011;469;48.770;9.176;2023-03-04T07:16:10;42.50;;;16.17;;
962;SDS011;469;48.770;9.176;2023-03-04T07:24:58;44.58;;;15.10;;
962;SDS011;469;48.770;9.176;2023-03-04T07:27:55;36.75;;;14.10;;
962;SDS011;469;48.770;9.176;2023-03-04T07:30:37;37.42;;;14.75;;
962;SDS011;469;48.770;9.176;2023-03-04T07:33:33;49.40;;;15.50;;
962;SDS011;469;48.770;9.176;2023-03-04T07:36:24;35.40;;;13.70;;
962;SDS011;469;48.770;9.176;2023-03-04T07:39:15;37.03;;;14.93;;
962;SDS011;469;48.770;9.176;2023-03-04T07:44:58;39.22;;;13.70;;
962;SDS011;469;48.770;9.176;2023-03-04T07:47:43;36.47;;;13.70;;
962;SDS011;469;48.770;9.176;2023-03-04T07:50:36;31.80;;;12.30;;
962;SDS011;469;48.770;9.176;2023-03-04T07:53:52;37.08;;;13.38;;
962;SDS011;469;48.770;9.176;2023-03-04T07:56:48;29.30;;;12.15;;
962;SDS011;469;48.770;9.176;2023-03-04T08:21:20;37.50;;;13.95;;
962;SDS011;469;48.770;9.176;2023-03-04T08:24:08;32.08;;;14.07;;
962;SDS011;469;48.770;9.176;2023-03-04T09:22:31;34.72;;;13.65;;
962;SDS011;469;48.770;9.176;2023-03-04T09:51:01;29.58;;;12.75;;
962;SDS011;469;48.770;9.176;2023-03-04T09:54:17;32.50;;;13.25;;
962;SDS011;469;48.770;9.176;2023-03-04T11:29:32;49.53;;;20.20;;
962;SDS011;469;48.770;9.176;2023-03-04T11:32:33;50.60;;;21.13;;
962;SDS011;469;48.770;9.176;2023-03-04T12:25:15;61.00;;;24.05;;
962;SDS011;469;48.770;9.176;2023-03-04T12:28:14;54.63;;;22.02;;
962;SDS011;469;48.770;9.176;2023-03-04T12:43:50;52.85;;;21.77;;
962;SDS011;469;48.770;9.176;2023-03-04T12:46:37;52.35;;;21.05;;
962;SDS011;469;48.770;9.176;2023-03-04T12:49:19;57.10;;;21.90;;
962;SDS011;469;48.770;9.176;2023-03-04T12:52:07;52.45;;;22.67;;
962;SDS011;469;48.770;9.176;2023-03-04T12:58:08;51.22;;;22.05;;
962;SDS011;469;48.770;9.176;2023-03-04T13:07:40;54.67;;;21.70;;
962;SDS011;469;48.770;9.176;2023-03-04T13:10:27;56.78;;;23.42;;
962;SDS011;469;48.770;9.176;2023-03-04T13:16:39;64.93;;;24.27;;
962;SDS011;469;48.770;9.176;2023-03-04T13:28:28;60.08;;;23.73;;
962;SDS011;469;48.770;9.176;2023-03-04T13:31:21;62.95;;;23.90;;
962;SDS011;469;48.770;9.176;2023-03-04T13:49:30;51.20;;;19.80;;
962;SDS011;469;48.770;9.176;2023-03-04T14:49:32;37.05;;;13.85;;
962;SDS011;469;48.770;9.176;2023-03-04T14:56:42;37.58;;;14.70;;
962;SDS011;469;48.770;9.176;2023-03-04T15:04:46;43.42;;;15.43;;
962;SDS011;469;48.770;9.176;2023-03-04T15:08:47;40.10;;;14.65;;
962;SDS011;469;48.770;9.176;2023-03-04T15:34:22;44.15;;;14.30;;
962;SDS011;469;48.770;9.176;2023-03-04T15:41:20;43.17;;;14.13;;
962;SDS011;469;48.770;9.176;2023-03-04T15:50:02;42.30;;;13.80;;
962;SDS011;469;48.770;9.176;2023-03-04T15:59:22;38.63;;;13.45;;
962;SDS011;469;48.770;9.176;2023-03-04T16:57:47;48.90;;;16.02;;
962;SDS011;469;48.770;9.176;2023-03-04T17:00:27;43.67;;;15.00;;
962;SDS011;469;48.770;9.176;2023-03-04T17:03:17;44.28;;;15.63;;
962;SDS011;469;48.770;9.176;2023-03-04T17:09:21;47.53;;;15.80;;
962;SDS011;469;48.770;9.176;2023-03-04T17:12:11;47.20;;;18.20;;
962;SDS011;469;48.770;9.176;2023-03-04T17:33:09;48.10;;;15.73;;
962;SDS011;469;48.770;9.176;2023-03-04T17:42:28;47.63;;;16.92;;
962;SDS011;469;48.770;9.176;2023-03-04T18:14:05;43.75;;;14.30;;
962;SDS011;469;48.770;9.176;2023-03-04T18:18:18;41.92;;;13.82;;
962;SDS011;469;48.770;9.176;2023-03-04T18:20:18;35.05;;;13.95;;
962;SDS011;469;48.770;9.176;2023-03-04T18:23:07;38.33;;;14.10;;
962;SDS011;469;48.770;9.176;2023-03-04T18:25:53;42.15;;;14.30;;
962;SDS011;469;48.770;9.176;2023-03-04T18:28:45;38.08;;;13.30;;
962;SDS011;469;48.770;9.176;2023-03-04T18:31:27;36.70;;;13.00;;
962;SDS011;469;48.770;9.176;2023-03-04T18:33:56;40.38;;;15.40;;
962;SDS011;469;48.770;9.176;2023-03-04T18:36:24;37.78;;;12.68;;
962;SDS011;469;48.770;9.176;2023-03-04T18:38:51;38.45;;;13.27;;
962;SDS011;469;48.770;9.176;2023-03-04T18:41:18;35.58;;;13.05;;
962;SDS011;469;48.770;9.176;2023-03-04T18:43:45;37.20;;;13.95;;
962;SDS011;469;48.770;9.176;2023-03-04T18:46:18;42.50;;;13.55;;
962;SDS011;469;48.770;9.176;2023-03-04T18:48:50;33.25;;;13.10;;
962;SDS011;469;48.770;9.176;2023-03-04T18:51:18;48.15;;;17.48;;
962;SDS011;469;48.770;9.176;2023-03-04T18:53:45;43.17;;;14.13;;
962;SDS011;469;48.770;9.176;2023-03-04T18:56:12;32.25;;;13.20;;
962;SDS011;469;48.770;9.176;2023-03-04T18:58:39;34.90;;;13.93;;
962;SDS011;469;48.770;9.176;2023-03-04T19:01:09;37.40;;;14.30;;
962;SDS011;469;48.770;9.176;2023-03-04T19:03:37;45.05;;;14.07;;
962;SDS011;469;48.770;9.176;2023-03-04T19:06:07;38.67;;;14.48;;
962;SDS011;469;48.770;9.176;2023-03-04T19:08:34;46.45;;;15.10;;
962;SDS011;469;48.770;9.176;2023-03-04T19:11:01;32.88;;;12.88;;
962;SDS011;469;48.770;9.176;2023-03-04T19:13:30;35.03;;;13.40;;
962;SDS011;469;48.770;9.176;2023-03-04T19:15:57;36.33;;;13.20;;
962;SDS011;469;48.770;9.176;2023-03-04T19:18:26;50.33;;;14.05;;
962;SDS011;469;48.770;9.176;2023-03-04T19:20:53;44.70;;;14.63;;
962;SDS011;469;48.770;9.176;2023-03-04T19:23:22;43.47;;;15.52;;
962;SDS011;469;48.770;9.176;2023-03-04T19:25:49;35.40;;;12.82;;
962;SDS011;469;48.770;9.176;2023-03-04T19:28:16;44.45;;;15.98;;
962;SDS011;469;48.770;9.176;2023-03-04T19:30:43;40.42;;;14.00;;
962;SDS011;469;48.770;9.176;2023-03-04T19:33:10;38.58;;;14.60;;
962;SDS011;469;48.770;9.176;2023-03-04T19:35:41;43.33;;;14.27;;
962;SDS011;469;48.770;9.176;2023-03-04T19:38:08;58.83;;;22.77;;
962;SDS011;469;48.770;9.176;2023-03-04T19:40:38;41.53;;;14.15;;
962;SDS011;469;48.770;9.176;2023-03-04T19:43:05;35.47;;;14.43;;
962;SDS011;469;48.770;9.176;2023-03-04T19:45:32;34.60;;;13.43;;
962;SDS011;469;48.770;9.176;2023-03-04T19:48:00;36.15;;;13.73;;
962;SDS011;469;48.770;9.176;2023-03-04T19:50:28;36.00;;;13.60;;
962;SDS011;469;48.770;9.176;2023-03-04T19:52:55;41.50;;;15.35;;
962;SDS011;469;48.770;9.176;2023-03-04T19:55:22;45.47;;;14.35;;
962;SDS011;469;48.770;9.176;2023-03-04T19:57:50;44.47;;;16.17;;
962;SDS011;469;48.770;9.176;2023-03-04T20:00:18;42.42;;;14.93;;
962;SDS011;469;48.770;9.176;2023-03-04T20:02:45;35.22;;;14.18;;
962;SDS011;469;48.770;9.176;2023-03-04T20:05:13;44.90;;;14.68;;
962;SDS011;469;48.770;9.176;2023-03-04T20:07:40;43.65;;;15.27;;
962;SDS011;469;48.770;9.176;2023-03-04T20:10:08;37.83;;;13.60;;
962;SDS011;469;48.770;9.176;2023-03-04T20:12:35;46.55;;;13.75;;
962;SDS011;469;48.770;9.176;2023-03-04T20:15:05;49.20;;;14.90;;
962;SDS011;469;48.770;9.176;2023-03-04T20:17:32;40.95;;;13.50;;
962;SDS011;469;48.770;9.176;2023-03-04T20:20:00;41.40;;;15.25;;
962;SDS011;469;48.770;9.176;2023-03-04T20:22:27;42.30;;;13.77;;
962;SDS011;469;48.770;9.176;2023-03-04T20:24:54;38.75;;;13.55;;
962;SDS011;469;48.770;9.176;2023-03-04T20:27:21;45.30;;;14.25;;
962;SDS011;469;48.770;9.176;2023-03-04T20:29:49;41.33;;;14.15;;
962;SDS011;469;48.770;9.176;2023-03-04T20:32:18;41.53;;;14.27;;
962;SDS011;469;48.770;9.176;2023-03-04T20:34:45;40.45;;;13.80;;
962;SDS011;469;48.770;9.176;2023-03-04T20:37:14;46.35;;;15.48;;
962;SDS011;469;48.770;9.176;2023-03-04T20:39:42;43.83;;;14.85;;
962;SDS011;469;48.770;9.176;2023-03-04T20:42:09;38.35;;;13.50;;
962;SDS011;469;48.770;9.176;2023-03-04T20:44:36;43.15;;;14.35;;
962;SDS011;469;48.770;9.176;2023-03-04T20:47:03;39.00;;;15.20;;
962;SDS011;469;48.770;9.176;2023-03-04T20:49:32;40.53;;;12.98;;
962;SDS011;469;48.770;9.176;2023-03-04T20:51:59;40.28;;;12.27;;
962;SDS011;469;48.770;9.176;2023-03-04T20:54:30;41.67;;;13.27;;
962;SDS011;469;48.770;9.176;2023-03-04T20:56:57;39.45;;;13.70;;
962;SDS011;469;48.770;9.176;2023-03-04T20:59:24;39.20;;;13.95;;
962;SDS011;469;48.770;9.176;2023-03-04T21:01:52;47.67;;;13.73;;
962;SDS011;469;48.770;9.176;2023-03-04T21:04:19;36.03;;;13.90;;
962;SDS011;469;48.770;9.176;2023-03-04T21:06:48;39.05;;;13.98;;
962;SDS011;469;48.770;9.176;2023-03-04T21:09:19;35.47;;;14.45;;
962;SDS011;469;48.770;9.176;2023-03-04T21:11:47;55.88;;;18.55;;
962;SDS011;469;48.770;9.176;2023-03-04T21:14:16;41.30;;;14.27;;
962;SDS011;469;48.770;9.176;2023-03-04T21:16:46;45.97;;;14.77;;
962;SDS011;469;48.770;9.176;2023-03-04T21:19:14;48.47;;;13.70;;
962;SDS011;469;48.770;9.176;2023-03-04T21:21:42;41.28;;;14.10;;
962;SDS011;469;48.770;9.176;2023-03-04T21:24:11;38.85;;;14.35;;
962;SDS011;469;48.770;9.176;2023-03-04T21:26:39;40.28;;;13.40;;
962;SDS011;469;48.770;9.176;2023-03-04T21:29:09;43.33;;;14.50;;
962;SDS011;469;48.770;9.176;2023-03-04T21:31:37;38.95;;;14.25;;
962;SDS011;469;48.770;9.176;2023-03-04T21:34:05;82.47;;;35.95;;
962;SDS011;469;48.770;9.176;2023-03-04T21:36:35;39.65;;;14.70;;
962;SDS011;469;48.770;9.176;2023-03-04T21:39:02;40.65;;;14.95;;
962;SDS011;469;48.770;9.176;2023-03-04T21:41:31;34.95;;;13.18;;
962;SDS011;469;48.770;9.176;2023-03-04T21:43:58;44.42;;;13.85;;
962;SDS011;469;48.770;9.176;2023-03-04T21:46:25;47.70;;;14.43;;
962;SDS011;469;48.770;9.176;2023-03-04T21:48:52;46.47;;;14.82;;
962;SDS011;469;48.770;9.176;2023-03-04T21:51:19;43.05;;;16.38;;
962;SDS011;469;48.770;9.176;2023-03-04T21:53:46;52.05;;;16.92;;
962;SDS011;469;48.770;9.176;2023-03-04T21:56:13;42.45;;;15.70;;
962;SDS011;469;48.770;9.176;2023-03-04T21:58:42;42.47;;;15.27;;
962;SDS011;469;48.770;9.176;2023-03-04T22:01:10;49.92;;;16.00;;
962;SDS011;469;48.770;9.176;2023-03-04T22:03:37;46.90;;;15.45;;
962;SDS011;469;48.770;9.176;2023-03-04T22:06:05;43.63;;;15.18;;
962;SDS011;469;48.770;9.176;2023-03-04T22:08:32;39.17;;;13.98;;
962;SDS011;469;48.770;9.176;2023-03-04T22:11:01;39.38;;;14.20;;
962;SDS011;469;48.770;9.176;2023-03-04T22:13:28;44.60;;;15.48;;
962;SDS011;469;48.770;9.176;2023-03-04T22:15:57;40.22;;;13.02;;
962;SDS011;469;48.770;9.176;2023-03-04T22:18:24;37.30;;;13.70;;
962;SDS011;469;48.770;9.176;2023-03-04T22:20:57;40.53;;;15.32;;
962;SDS011;469;48.770;9.176;2023-03-04T22:23:24;37.92;;;14.20;;
962;SDS011;469;48.770;9.176;2023-03-04T22:25:51;48.03;;;15.15;;
962;SDS011;469;48.770;9.176;2023-03-04T22:28:19;38.13;;;14.30;;
962;SDS011;469;48.770;9.176;2023-03-04T22:30:49;42.42;;;14.20;;
962;SDS011;469;48.770;9.176;2023-03-04T22:33:17;39.72;;;15.68;;
962;SDS011;469;48.770;9.176;2023-03-04T22:35:46;43.72;;;14.63;;
962;SDS011;469;48.770;9.176;2023-03-04T22:38:13;36.50;;;14.23;;
962;SDS011;469;48.770;9.176;2023-03-04T22:40:40;40.83;;;13.88;;
962;SDS011;469;48.770;9.176;2023-03-04T22:43:08;43.30;;;15.52;;
962;SDS011;469;48.770;9.176;2023-03-04T22:45:35;42.15;;;14.68;;
962;SDS011;469;48.770;9.176;2023-03-04T22:48:02;47.80;;;18.08;;
962;SDS011;469;48.770;9.176;2023-03-04T22:50:31;51.65;;;14.90;;
962;SDS011;469;48.770;9.176;2023-03-04T22:52:58;43.05;;;15.27;;
962;SDS011;469;48.770;9.176;2023-03-04T22:55:25;41.20;;;15.57;;
962;SDS011;469;48.770;9.176;2023-03-04T22:57:52;36.45;;;13.77;;
962;SDS011;469;48.770;9.176;2023-03-04T23:00:20;45.08;;;15.70;;
962;SDS011;469;48.770;9.176;2023-03-04T23:02:48;35.58;;;14.27;;
962;SDS011;469;48.770;9.176;2023-03-04T23:05:15;42.63;;;14.75;;
962;SDS011;469;48.770;9.176;2023-03-04T23:07:46;40.60;;;15.15;;
962;SDS011;469;48.770;9.176;2023-03-04T23:10:16;41.70;;;15.07;;
962;SDS011;469;48.770;9.176;2023-03-04T23:12:43;41.13;;;15.40;;
962;SDS011;469;48.770;9.176;2023-03-04T23:15:11;40.95;;;14.90;;
962;SDS011;469;48.770;9.176;2023-03-04T23:17:38;38.17;;;14.43;;
962;SDS011;469;48.770;9.176;2023-03-04T23:20:06;44.45;;;14.65;;
962;SDS011;469;48.770;9.176;2023-03-04T23:22:33;38.40;;;13.95;;
962;SDS011;469;48.770;9.176;2023-03-04T23:25:02;41.72;;;15.65;;
962;SDS011;469;48.770;9.176;2023-03-04T23:27:29;42.67;;;14.68;;
962;SDS011;469;48.770;9.176;2023-03-04T23:29:56;40.20;;;14.77;;
962;SDS011;469;48.770;9.176;2023-03-04T23:32:23;39.38;;;14.73;;
962;SDS011;469;48.770;9.176;2023-03-04T23:34:50;51.60;;;15.77;;
962;SDS011;469;48.770;9.176;2023-03-04T23:37:19;40.78;;;14.32;;
962;SDS011;469;48.770;9.176;2023-03-04T23:39:48;44.05;;;15.45;;
962;SDS011;469;48.770;9.176;2023-03-04T23:42:16;41.95;;;15.93;;
962;SDS011;469;48.770;9.176;2023-03-04T23:44:43;43.78;;;15.30;;
962;SDS011;469;48.770;9.176;2023-03-04T23:47:10;47.80;;;15.68;;
962;SDS011;469;48.770;9.176;2023-03-04T23:49:37;39.17;;;15.48;;
962;SDS011;469;48.770;9.176;2023-03-04T23:52:04;37.63;;;15.05;;
962;SDS011;469;48.770;9.176;2023-03-04T23:54:32;44.33;;;15.40;;
962;SDS011;469;48.770;9.176;2023-03-04T23:56:59;43.53;;;15.13;;
962;SDS011;469;48.770;9.176;2023-03-04T23:59:27;40.17;;;14.25;;
